createdAt,value
2018-01-30T00:00:00.054Z,80.40
2018-01-30T00:02:27.607Z,80.03
2018-01-30T00:04:55.168Z,73.80
2018-01-30T00:07:22.834Z,77.27
2018-01-30T00:09:50.382Z,124.20
2018-01-30T00:12:17.943Z,93.50
2018-01-30T00:14:45.528Z,208.07
2018-01-30T00:17:13.162Z,327.23
2018-01-30T00:19:40.943Z,176.77
2018-01-30T00:22:08.628Z,264.83
2018-01-30T00:24:36.740Z,258.80
2018-01-30T00:27:04.260Z,276.10
2018-01-30T00:29:31.803Z,251.73
2018-01-30T00:31:59.312Z,242.23
2018-01-30T00:34:26.857Z,225.33
2018-01-30T00:36:54.549Z,194.30
2018-01-30T00:39:22.067Z,224.47
2018-01-30T00:41:49.601Z,213.83
2018-01-30T00:44:17.108Z,210.20
2018-01-30T00:46:44.653Z,152.10
2018-01-30T00:49:12.332Z,210.30
2018-01-30T00:51:39.855Z,174.67
2018-01-30T00:54:07.453Z,143.53
2018-01-30T00:56:34.986Z,160.93
2018-01-30T00:59:02.500Z,182.53
2018-01-30T01:01:30.325Z,164.13
2018-01-30T01:03:57.868Z,148.83
2018-01-30T01:06:25.414Z,156.83
2018-01-30T01:08:52.948Z,216.57
2018-01-30T01:11:20.458Z,167.13
2018-01-30T01:13:48.142Z,187.33
2018-01-30T01:16:15.714Z,209.37
2018-01-30T01:18:43.258Z,130.17
2018-01-30T01:21:10.807Z,209.60
2018-01-30T01:23:38.345Z,171.33
2018-01-30T01:26:06.173Z,177.77
2018-01-30T01:28:33.756Z,140.43
2018-01-30T01:31:01.503Z,183.47
2018-01-30T01:33:29.061Z,118.03
2018-01-30T01:35:56.613Z,138.77
2018-01-30T01:38:24.173Z,170.67
2018-01-30T01:40:51.721Z,229.60
2018-01-30T01:43:19.408Z,201.13
2018-01-30T01:45:46.944Z,176.57
2018-01-30T01:48:14.512Z,185.63
2018-01-30T01:50:42.030Z,185.47
2018-01-30T01:53:09.604Z,202.67
2018-01-30T01:55:37.272Z,195.90
2018-01-30T01:58:04.833Z,200.53
2018-01-30T02:00:32.554Z,214.33
2018-01-30T02:03:00.118Z,274.33
2018-01-30T02:05:27.662Z,250.17
2018-01-30T02:07:55.220Z,264.87
2018-01-30T02:10:22.763Z,225.13
2018-01-30T02:12:50.442Z,129.33
2018-01-30T02:15:18.012Z,90.90
2018-01-30T02:17:45.530Z,70.20
2018-01-30T02:20:13.061Z,122.03
2018-01-30T02:22:40.586Z,178.80
2018-01-30T02:25:08.304Z,118.50
2018-01-30T02:27:35.844Z,63.97
2018-01-30T02:30:05.303Z,80.23
2018-01-30T02:32:32.874Z,111.40
2018-01-30T02:35:00.488Z,100.77
2018-01-30T02:37:28.061Z,65.43
2018-01-30T02:39:55.612Z,76.10
2018-01-30T02:42:23.287Z,87.57
2018-01-30T02:44:50.837Z,92.23
2018-01-30T02:47:18.363Z,66.23
2018-01-30T02:49:45.910Z,164.67
2018-01-30T02:52:13.472Z,155.70
2018-01-30T02:54:41.158Z,165.70
2018-01-30T02:57:08.692Z,181.20
2018-01-30T02:59:36.254Z,202.03
2018-01-30T03:02:03.835Z,261.73
2018-01-30T03:04:31.394Z,227.87
2018-01-30T03:06:59.079Z,242.13
2018-01-30T03:09:26.628Z,223.67
2018-01-30T03:11:54.207Z,174.73
2018-01-30T03:14:21.776Z,215.03
2018-01-30T03:16:49.300Z,224.07
2018-01-30T03:19:16.971Z,255.23
2018-01-30T03:21:44.544Z,187.80
2018-01-30T03:24:12.159Z,189.10
2018-01-30T03:26:39.716Z,178.87
2018-01-30T03:29:07.298Z,161.33
2018-01-30T03:31:34.841Z,170.50
2018-01-30T03:34:02.403Z,202.83
2018-01-30T03:36:30.073Z,166.67
2018-01-30T03:38:57.591Z,166.43
2018-01-30T03:41:25.198Z,164.20
2018-01-30T03:43:52.721Z,165.97
2018-01-30T03:46:20.296Z,186.77
2018-01-30T03:48:47.964Z,159.07
2018-01-30T03:51:15.529Z,160.63
2018-01-30T03:53:43.045Z,132.50
2018-01-30T03:56:10.574Z,134.70
2018-01-30T03:58:38.119Z,150.40
2018-01-30T04:01:05.928Z,111.23
2018-01-30T04:03:33.444Z,143.13
2018-01-30T04:06:00.971Z,158.83
2018-01-30T04:08:28.526Z,125.67
2018-01-30T04:10:56.107Z,164.37
2018-01-30T04:13:23.760Z,166.63
2018-01-30T04:15:51.279Z,197.63
2018-01-30T04:18:18.800Z,190.87
2018-01-30T04:20:46.324Z,173.00
2018-01-30T04:23:13.868Z,191.67
2018-01-30T04:25:41.591Z,237.60
2018-01-30T04:28:09.118Z,187.97
2018-01-30T04:30:36.837Z,195.73
2018-01-30T04:33:04.400Z,182.60
2018-01-30T04:35:31.966Z,194.37
2018-01-30T04:37:59.511Z,205.37
2018-01-30T04:40:27.056Z,202.37
2018-01-30T04:42:54.747Z,147.90
2018-01-30T04:45:22.275Z,172.70
2018-01-30T04:47:49.838Z,150.20
2018-01-30T04:50:17.391Z,163.10
2018-01-30T04:52:44.981Z,166.47
2018-01-30T04:55:12.686Z,169.43
2018-01-30T04:57:40.238Z,174.33
2018-01-30T05:00:08.037Z,180.20
2018-01-30T05:02:35.642Z,176.17
2018-01-30T05:05:03.187Z,186.37
2018-01-30T05:07:30.805Z,184.30
2018-01-30T05:09:58.414Z,184.90
2018-01-30T05:12:26.133Z,168.30
2018-01-30T05:14:53.695Z,184.53
2018-01-30T05:17:21.229Z,173.10
2018-01-30T05:19:48.764Z,191.60
2018-01-30T05:22:16.305Z,175.37
2018-01-30T05:24:44.012Z,178.37
2018-01-30T05:27:11.618Z,164.57
2018-01-30T05:29:39.173Z,182.90
2018-01-30T05:32:06.752Z,176.47
2018-01-30T05:34:34.295Z,182.83
2018-01-30T05:37:01.963Z,181.37
2018-01-30T05:39:29.538Z,176.70
2018-01-30T05:41:57.100Z,172.47
2018-01-30T05:44:24.687Z,170.87
2018-01-30T05:46:52.234Z,96.40
2018-01-30T05:49:19.925Z,102.70
2018-01-30T05:51:47.457Z,97.87
2018-01-30T05:54:14.970Z,79.13
2018-01-30T05:56:42.495Z,100.27
2018-01-30T05:59:10.037Z,79.97
2018-01-30T06:01:37.581Z,113.27
2018-01-30T06:04:05.120Z,96.17
2018-01-30T06:06:32.842Z,101.80
2018-01-30T06:09:00.373Z,129.77
2018-01-30T06:11:27.901Z,81.27
2018-01-30T06:13:55.400Z,69.40
2018-01-30T06:16:22.938Z,82.33
2018-01-30T06:18:50.734Z,85.60
2018-01-30T06:21:18.764Z,89.53
2018-01-30T06:23:46.334Z,122.07
2018-01-30T06:26:14.257Z,129.83
2018-01-30T06:28:41.835Z,113.60
2018-01-30T06:31:09.841Z,112.40
2018-01-30T06:33:37.419Z,122.50
2018-01-30T06:36:04.971Z,119.90
2018-01-30T06:38:32.539Z,117.30
2018-01-30T06:41:00.054Z,101.33
2018-01-30T06:43:27.719Z,102.67
2018-01-30T06:45:55.248Z,91.63
2018-01-30T06:48:22.800Z,87.57
2018-01-30T06:50:50.315Z,124.50
2018-01-30T06:53:17.936Z,126.03
2018-01-30T06:55:45.636Z,120.10
2018-01-30T06:58:13.222Z,118.83
2018-01-30T07:00:40.959Z,115.67
2018-01-30T07:03:08.479Z,111.33
2018-01-30T07:05:35.986Z,116.23
2018-01-30T07:08:03.512Z,160.87
2018-01-30T07:10:31.206Z,143.37
2018-01-30T07:12:59.080Z,127.13
2018-01-30T07:15:26.637Z,144.37
2018-01-30T07:17:54.181Z,151.07
2018-01-30T07:20:21.756Z,189.80
2018-01-30T07:22:49.301Z,163.90
2018-01-30T07:25:17.021Z,184.37
2018-01-30T07:27:44.568Z,198.87
2018-01-30T07:30:12.264Z,188.97
2018-01-30T07:32:39.844Z,180.73
2018-01-30T07:35:07.589Z,178.97
2018-01-30T07:37:35.132Z,199.40
2018-01-30T07:40:02.677Z,182.43
2018-01-30T07:42:30.375Z,165.23
2018-01-30T07:44:57.884Z,180.10
2018-01-30T07:47:25.422Z,197.97
2018-01-30T07:49:52.940Z,213.70
2018-01-30T07:52:20.486Z,194.47
2018-01-30T07:54:48.167Z,180.10
2018-01-30T07:57:15.702Z,151.77
2018-01-30T07:59:43.346Z,148.30
2018-01-30T08:02:10.919Z,150.13
2018-01-30T08:04:38.433Z,118.07
2018-01-30T08:07:06.188Z,126.77
2018-01-30T08:09:33.713Z,108.60
2018-01-30T08:12:01.235Z,93.07
2018-01-30T08:14:28.748Z,111.60
2018-01-30T08:16:56.280Z,83.53
2018-01-30T08:19:23.944Z,94.50
2018-01-30T08:21:51.457Z,72.80
2018-01-30T08:24:18.961Z,95.63
2018-01-30T08:26:46.470Z,77.10
2018-01-30T08:29:13.974Z,63.37
2018-01-30T08:31:41.508Z,70.17
2018-01-30T08:34:09.024Z,64.67
2018-01-30T08:36:36.685Z,103.20
2018-01-30T08:39:04.309Z,89.63
2018-01-30T08:41:31.835Z,84.67
2018-01-30T08:43:59.405Z,82.70
2018-01-30T08:46:27.004Z,81.30
2018-01-30T08:48:54.826Z,70.93
2018-01-30T08:51:22.333Z,116.20
2018-01-30T08:53:49.849Z,103.87
2018-01-30T08:56:17.366Z,88.23
2018-01-30T08:58:44.875Z,92.37
2018-01-30T09:01:12.386Z,102.20
2018-01-30T09:03:39.927Z,84.13
2018-01-30T09:06:07.609Z,119.80
2018-01-30T09:08:35.133Z,92.40
2018-01-30T09:11:02.668Z,69.77
2018-01-30T09:13:30.199Z,72.57
2018-01-30T09:15:58.413Z,70.63
2018-01-30T09:18:26.092Z,93.50
2018-01-30T09:20:53.626Z,70.77
2018-01-30T09:23:21.151Z,94.33
2018-01-30T09:25:48.692Z,81.30
2018-01-30T09:28:16.201Z,72.27
2018-01-30T09:30:43.828Z,88.90
2018-01-30T09:33:11.329Z,89.50
2018-01-30T09:35:38.831Z,90.50
2018-01-30T09:38:06.341Z,92.63
2018-01-30T09:40:33.852Z,103.37
2018-01-30T09:43:01.536Z,89.27
2018-01-30T09:45:29.206Z,99.87
2018-01-30T09:47:56.892Z,82.30
2018-01-30T09:50:24.808Z,101.27
2018-01-30T09:52:52.364Z,86.80
2018-01-30T09:55:20.122Z,72.87
2018-01-30T09:57:47.636Z,79.97
2018-01-30T10:00:16.023Z,75.87
2018-01-30T10:02:43.565Z,93.00
2018-01-30T10:05:11.094Z,74.27
2018-01-30T10:07:39.541Z,73.07
2018-01-30T10:10:07.110Z,75.90
2018-01-30T10:12:34.749Z,92.93
2018-01-30T10:15:02.311Z,87.57
2018-01-30T10:17:29.855Z,81.20
2018-01-30T10:19:57.379Z,86.43
2018-01-30T10:22:24.904Z,73.90
2018-01-30T10:24:52.549Z,82.30
2018-01-30T10:27:20.246Z,92.43
2018-01-30T10:29:47.760Z,82.73
2018-01-30T10:32:15.279Z,82.50
2018-01-30T10:34:42.844Z,72.40
2018-01-30T10:37:10.520Z,82.17
2018-01-30T10:39:38.033Z,81.13
2018-01-30T10:42:05.623Z,78.77
2018-01-30T10:44:34.291Z,70.60
2018-01-30T10:47:01.792Z,79.80
2018-01-30T10:49:29.430Z,94.13
2018-01-30T10:51:56.946Z,69.83
2018-01-30T10:54:24.489Z,65.13
2018-01-30T10:56:52.045Z,78.23
2018-01-30T10:59:19.533Z,60.07
2018-01-30T11:01:47.066Z,83.63
2018-01-30T11:04:14.568Z,64.30
2018-01-30T11:06:42.243Z,58.37
2018-01-30T11:09:09.769Z,70.40
2018-01-30T11:11:37.321Z,67.77
2018-01-30T11:14:04.864Z,74.87
2018-01-30T11:16:32.389Z,60.63
2018-01-30T11:19:00.048Z,42.37
2018-01-30T11:24:09.656Z,42.57
2018-01-30T11:26:37.172Z,52.07
2018-01-30T11:29:04.694Z,34.57
2018-01-30T11:31:32.206Z,35.33
2018-01-30T11:33:59.718Z,37.93
2018-01-30T11:36:27.394Z,37.50
2018-01-30T11:38:54.902Z,37.07
2018-01-30T11:41:22.593Z,37.97
2018-01-30T11:43:50.160Z,27.97
2018-01-30T11:46:17.764Z,33.50
2018-01-30T11:48:45.440Z,20.57
2018-01-30T11:51:12.985Z,8.60
2018-01-30T11:53:40.519Z,9.93
2018-01-30T11:56:08.020Z,18.90
2018-01-30T11:58:35.567Z,7.47
2018-01-30T12:01:03.269Z,14.00
2018-01-30T12:03:30.789Z,13.80
2018-01-30T12:05:58.287Z,5.10
2018-01-30T12:08:25.814Z,4.63
2018-01-30T12:10:53.367Z,26.53
2018-01-30T12:13:22.113Z,3.60
2018-01-30T12:15:49.647Z,6.53
2018-01-30T12:18:17.152Z,3.20
2018-01-30T12:20:44.670Z,2.80
2018-01-30T12:23:12.204Z,4.10
2018-01-30T12:25:39.853Z,6.70
2018-01-30T12:28:07.362Z,3.33
2018-01-30T12:30:35.005Z,13.50
2018-01-30T12:33:02.518Z,10.30
2018-01-30T12:35:30.018Z,3.07
2018-01-30T12:37:57.550Z,4.50
2018-01-30T12:40:25.049Z,10.60
2018-01-30T12:42:52.694Z,8.33
2018-01-30T12:45:20.202Z,3.90
2018-01-30T12:47:47.714Z,3.50
2018-01-30T12:50:15.237Z,2.27
2018-01-30T12:52:42.759Z,3.90
2018-01-30T12:55:10.412Z,6.90
2018-01-30T12:57:37.996Z,4.03
2018-01-30T13:00:09.169Z,3.13
2018-01-30T13:02:36.705Z,4.00
2018-01-30T13:05:04.314Z,3.03
2018-01-30T13:07:31.826Z,4.37
2018-01-30T13:09:59.326Z,70.43
2018-01-30T13:12:27.022Z,4.40
2018-01-30T13:14:54.637Z,5.50
2018-01-30T13:17:22.217Z,3.63
2018-01-30T13:19:49.973Z,5.17
2018-01-30T13:22:18.117Z,6.47
2018-01-30T13:24:45.882Z,11.00
2018-01-30T13:27:13.464Z,3.87
2018-01-30T13:29:42.020Z,3.37
2018-01-30T13:32:09.553Z,2.57
2018-01-30T13:34:37.079Z,3.80
2018-01-30T13:37:04.755Z,3.87
2018-01-30T13:39:32.287Z,3.40
2018-01-30T13:41:59.813Z,3.57
2018-01-30T13:44:27.332Z,3.97
2018-01-30T13:46:54.851Z,6.20
2018-01-30T13:49:22.512Z,5.63
2018-01-30T13:51:50.025Z,3.80
2018-01-30T13:54:17.542Z,6.97
2018-01-30T13:56:45.062Z,13.23
2018-01-30T13:59:12.581Z,6.43
2018-01-30T14:01:40.084Z,7.93
2018-01-30T14:04:07.661Z,2.40
2018-01-30T14:06:35.286Z,4.63
2018-01-30T14:09:02.809Z,4.50
2018-01-30T14:11:30.310Z,9.60
2018-01-30T14:13:57.829Z,4.90
2018-01-30T14:16:25.330Z,2.53
2018-01-30T14:18:52.996Z,4.70
2018-01-30T14:21:20.555Z,4.70
2018-01-30T14:23:48.155Z,3.93
2018-01-30T14:26:15.668Z,2.73
2018-01-30T14:28:43.183Z,5.07
2018-01-30T14:31:10.694Z,4.60
2018-01-30T14:33:38.247Z,5.53
2018-01-30T14:36:05.904Z,3.30
2018-01-30T14:38:33.421Z,3.23
2018-01-30T14:41:00.981Z,7.37
2018-01-30T14:43:28.495Z,2.43
2018-01-30T14:45:56.054Z,7.43
2018-01-30T14:48:23.708Z,5.33
2018-01-30T14:50:51.241Z,3.23
2018-01-30T14:53:18.842Z,3.40
2018-01-30T14:55:46.326Z,7.33
2018-01-30T14:58:13.860Z,4.77
2018-01-30T15:00:41.543Z,4.10
2018-01-30T15:03:09.074Z,3.07
2018-01-30T15:05:36.596Z,5.17
2018-01-30T15:08:04.180Z,126.77
2018-01-30T15:10:31.683Z,46.13
2018-01-30T15:12:59.349Z,11.13
2018-01-30T15:15:26.933Z,7.80
2018-01-30T15:17:54.457Z,49.47
2018-01-30T15:20:22.776Z,3.83
2018-01-30T15:22:50.309Z,9.43
2018-01-30T15:25:17.992Z,5.00
2018-01-30T15:27:45.556Z,3.67
2018-01-30T15:30:14.014Z,13.93
2018-01-30T15:32:41.540Z,9.60
2018-01-30T15:35:09.045Z,3.67
2018-01-30T15:37:36.541Z,3.70
2018-01-30T15:40:04.055Z,20.17
2018-01-30T15:42:31.736Z,8.47
2018-01-30T15:44:59.459Z,3.53
2018-01-30T15:47:26.977Z,7.33
2018-01-30T15:49:54.486Z,4.47
2018-01-30T15:52:22.055Z,7.90
2018-01-30T15:54:49.722Z,16.00
2018-01-30T15:57:17.388Z,5.30
2018-01-30T15:59:45.024Z,5.27
2018-01-30T16:02:12.538Z,5.67
2018-01-30T16:04:40.176Z,6.13
2018-01-30T16:07:07.830Z,48.80
2018-01-30T16:09:35.961Z,35.27
2018-01-30T16:12:03.573Z,89.87
2018-01-30T16:14:31.070Z,37.27
2018-01-30T16:16:58.672Z,7.80
2018-01-30T16:19:26.343Z,5.30
2018-01-30T16:21:53.853Z,5.13
2018-01-30T16:24:21.362Z,5.10
2018-01-30T16:26:48.984Z,5.97
2018-01-30T16:29:16.497Z,8.77
2018-01-30T16:31:43.999Z,4.83
2018-01-30T16:34:11.687Z,7.97
2018-01-30T16:36:39.378Z,12.07
2018-01-30T16:39:07.041Z,14.30
2018-01-30T16:41:34.571Z,11.23
2018-01-30T16:44:02.378Z,11.47
2018-01-30T16:46:30.027Z,6.43
2018-01-30T16:48:58.336Z,13.83
2018-01-30T16:51:25.867Z,11.70
2018-01-30T16:53:53.357Z,8.23
2018-01-30T16:56:20.920Z,50.13
2018-01-30T16:58:48.532Z,30.43
2018-01-30T17:01:16.100Z,7.17
2018-01-30T17:03:43.700Z,12.90
2018-01-30T17:06:11.342Z,15.33
2018-01-30T17:08:38.863Z,11.53
2018-01-30T17:11:06.382Z,11.30
2018-01-30T17:13:33.928Z,8.00
2018-01-30T17:16:01.467Z,10.07
2018-01-30T17:18:29.211Z,6.13
2018-01-30T17:20:56.805Z,9.20
2018-01-30T17:23:25.244Z,8.80
2018-01-30T17:25:52.770Z,14.00
2018-01-30T17:28:20.477Z,8.07
2018-01-30T17:30:48.126Z,18.10
2018-01-30T17:33:15.663Z,16.10
2018-01-30T17:35:43.317Z,15.63
2018-01-30T17:38:10.978Z,9.90
2018-01-30T17:40:38.502Z,10.47
2018-01-30T17:43:06.141Z,6.83
2018-01-30T17:45:33.656Z,11.23
2018-01-30T17:48:01.169Z,5.20
2018-01-30T17:50:28.722Z,10.13
2018-01-30T17:52:56.248Z,9.30
2018-01-30T17:55:23.900Z,14.73
2018-01-30T17:57:51.486Z,10.93
2018-01-30T18:00:19.236Z,12.90
2018-01-30T18:02:46.760Z,12.77
2018-01-30T18:05:14.269Z,7.70
2018-01-30T18:07:41.812Z,21.43
2018-01-30T18:10:09.454Z,22.57
2018-01-30T18:12:37.172Z,12.50
2018-01-30T18:15:04.742Z,11.73
2018-01-30T18:17:32.276Z,14.70
2018-01-30T18:19:59.812Z,11.60
2018-01-30T18:22:27.348Z,13.70
2018-01-30T18:24:55.024Z,24.17
2018-01-30T18:27:22.555Z,7.73
2018-01-30T18:29:50.062Z,14.87
2018-01-30T18:32:17.567Z,8.50
2018-01-30T18:34:45.129Z,13.00
2018-01-30T18:37:12.874Z,10.77
2018-01-30T18:39:45.672Z,8.17
2018-01-30T18:42:13.484Z,8.30
2018-01-30T18:44:41.978Z,15.27
2018-01-30T18:47:09.736Z,10.03
2018-01-30T18:49:38.071Z,6.73
2018-01-30T18:52:05.629Z,3.60
2018-01-30T18:54:33.380Z,11.13
2018-01-30T18:57:01.141Z,11.27
2018-01-30T18:59:28.708Z,4.90
2018-01-30T19:01:56.341Z,11.60
2018-01-30T19:04:23.976Z,13.53
2018-01-30T19:06:51.943Z,14.10
2018-01-30T19:09:19.610Z,12.80
2018-01-30T19:11:47.321Z,19.53
2018-01-30T19:14:16.028Z,14.77
2018-01-30T19:16:44.368Z,15.50
2018-01-30T19:19:20.377Z,14.70
2018-01-30T19:21:50.823Z,12.13
2018-01-30T19:24:22.570Z,11.63
2018-01-30T19:26:53.262Z,16.10
2018-01-30T19:29:22.354Z,7.60
2018-01-30T19:31:52.103Z,14.43
2018-01-30T19:34:20.112Z,32.23
2018-01-30T19:36:51.612Z,13.90
2018-01-30T19:39:20.150Z,6.83
2018-01-30T19:41:52.193Z,21.47
2018-01-30T19:44:21.322Z,8.07
2018-01-30T19:46:49.023Z,12.33
2018-01-30T19:49:17.723Z,18.80
2018-01-30T19:51:45.372Z,20.27
2018-01-30T19:54:13.024Z,15.70
2018-01-30T19:56:40.651Z,15.70
2018-01-30T19:59:08.234Z,8.50
2018-01-30T20:01:35.933Z,9.10
2018-01-30T20:04:04.478Z,7.20
2018-01-30T20:06:32.150Z,8.90
2018-01-30T20:08:59.700Z,9.90
2018-01-30T20:11:27.213Z,11.60
2018-01-30T20:13:54.733Z,15.77
2018-01-30T20:16:22.294Z,12.27
2018-01-30T20:18:50.044Z,13.17
2018-01-30T20:21:18.568Z,14.57
2018-01-30T20:23:46.125Z,14.53
2018-01-30T20:26:13.767Z,14.17
2018-01-30T20:28:42.160Z,16.70
2018-01-30T20:31:09.924Z,17.60
2018-01-30T20:33:37.566Z,14.33
2018-01-30T21:23:08.792Z,5.90
2018-01-30T21:25:36.327Z,8.57
2018-01-30T21:28:03.851Z,5.00
2018-01-30T21:30:31.566Z,6.27
2018-01-30T21:32:59.130Z,4.73
2018-01-30T21:35:26.710Z,7.50
2018-01-30T21:37:54.264Z,7.20
2018-01-30T21:40:21.785Z,5.33
2018-01-30T21:42:50.218Z,7.37
2018-01-30T21:45:18.620Z,6.23
2018-01-30T21:47:46.217Z,3.60
2018-01-30T21:50:13.754Z,6.20
2018-01-30T21:52:41.270Z,4.30
2018-01-30T21:55:08.935Z,10.67
2018-01-30T21:57:36.472Z,6.83
2018-01-30T22:00:08.049Z,9.70
2018-01-30T22:02:35.607Z,16.43
2018-01-30T22:05:03.172Z,25.57
2018-01-30T22:07:30.736Z,17.40
2018-01-30T22:09:58.330Z,13.73
2018-01-30T22:12:25.994Z,19.20
2018-01-30T22:14:53.621Z,18.93
2018-01-30T22:17:21.105Z,14.33
2018-01-30T22:19:48.717Z,10.93
2018-01-30T22:22:16.310Z,8.10
2018-01-30T22:24:44.083Z,8.00
2018-01-30T22:27:11.619Z,7.13
2018-01-30T22:29:39.278Z,6.80
2018-01-30T22:32:06.829Z,9.77
2018-01-30T22:34:34.576Z,6.67
2018-01-30T22:37:02.355Z,6.97
2018-01-30T22:39:29.920Z,8.57
2018-01-30T22:41:57.518Z,5.47
2018-01-30T22:44:30.036Z,9.33
2018-01-30T22:46:53.245Z,8.67
